Weather History for KPTS - January, 2013

Change the Weather History Date:

Friday, January 11, 2013

  Actual Average (KJLN) Record (KJLN)
Temperature  
Mean Temperature 56 °F 34 °F  
Max Temperature 63 °F 44 °F 71 °F (1995)
Min Temperature 48 °F 25 °F -8 °F (1977)
Degree Days  
Heating Degree Days 10 30  
Month to date heating degree days 330  
Since 1 July heating degree days 1947  
Cooling Degree Days 0 0  
Month to date cooling degree days 0  
Year to date cooling degree days 0  
Growing Degree Days 6 (Base 50)    
Moisture  
Dew Point 47 °F    
Average Humidity 73    
Maximum Humidity 100    
Minimum Humidity 48    
Precipitation  
Precipitation 0.00 in 0.06 in 0.17 in (1993)
Month to date precipitation 0.76  
Year to date precipitation 0.76  
Sea Level Pressure  
Sea Level Pressure 29.73 in    
Wind  
Wind Speed 16 mph (SSW)    
Max Wind Speed 28 mph    
Max Gust Speed 36 mph    
Visibility 10 miles    
Events      
T = Trace of Precipitation, MM = Missing Value Source: NWS Daily Summary

Daily Weather History Graph

Daily Weather History Graph

Search for Another Location

Airport or City:

Trip Planner

Search our weather history database for the weather conditions in past years. The results will help you decide how hot, cold, wet, or windy it might be!

Date:

Astronomy

Jan. 11, 2013 Rise Set
Actual Time 7:33 AM CST 5:21 PM CST
Civil Twilight 7:04 AM CST 5:49 PM CST
Nautical Twilight 6:32 AM CST 6:22 PM CST
Astronomical Twilight 6:00 AM CST 6:53 PM CST
Moon 7:07 AM CST (1/11) 5:38 PM CST (1/11)
Length of Visible Light 10h 45m
Length of Day
9h 47m
Waning Crescent, 0% of the Moon is Illuminated
Jan 11
Waning Crescent
Jan 11
New
Jan 18
First Quarter
Jan 26
Full
Feb 3
Last Quarter

Hourly Weather History & Observations

Time (CST) Temp. Dew Point Humidity Pressure Visibility Wind Dir Wind Speed Gust Speed Precip Events Conditions
12:15 AM 50.9 °F 50.9 °F 100% 29.80 in 7.0 mi SW 16.1 mph 21.9 mph N/A   Overcast
12:35 AM 50.9 °F 50.9 °F 100% 29.81 in 10.0 mi SW 15.0 mph - N/A   Overcast
12:55 AM 50.9 °F 50.9 °F 100% 29.82 in 10.0 mi SW 19.6 mph 24.2 mph N/A   Overcast
1:15 AM 50.9 °F 50.9 °F 100% 29.80 in 7.0 mi SW 13.8 mph - N/A   Overcast
1:35 AM 50.9 °F 50.9 °F 100% 29.79 in 7.0 mi SW 13.8 mph 18.4 mph N/A   Overcast
1:55 AM 50.9 °F 50.9 °F 100% 29.81 in 10.0 mi SW 15.0 mph - N/A   Overcast
2:15 AM 50.9 °F 50.9 °F 100% 29.81 in 10.0 mi SW 16.1 mph 25.3 mph N/A   Overcast
2:35 AM 50.9 °F 50.9 °F 100% 29.80 in 10.0 mi SW 16.1 mph 21.9 mph N/A   Overcast
2:55 AM 50.9 °F 50.9 °F 100% 29.81 in 7.0 mi SW 13.8 mph - N/A   Overcast
3:15 AM 50.9 °F 50.9 °F 100% 29.81 in 10.0 mi SSW 13.8 mph 21.9 mph N/A   Overcast
3:35 AM 50.9 °F 50.9 °F 100% 29.80 in 10.0 mi SSW 13.8 mph - N/A   Overcast
3:55 AM 50.9 °F 50.9 °F 100% 29.79 in 10.0 mi SSW 13.8 mph 21.9 mph N/A   Overcast
4:15 AM 50.9 °F 50.9 °F 100% 29.79 in 10.0 mi SSW 13.8 mph 20.7 mph N/A   Overcast
4:35 AM 50.9 °F 50.9 °F 100% 29.78 in 10.0 mi SSW 15.0 mph 21.9 mph N/A   Overcast
4:55 AM 50.9 °F 50.9 °F 100% 29.78 in 10.0 mi SSW 17.3 mph 25.3 mph N/A   Overcast
5:15 AM 50.9 °F 50.9 °F 100% 29.77 in 10.0 mi SSW 16.1 mph 19.6 mph N/A   Mostly Cloudy
5:35 AM 50.9 °F 50.9 °F 100% 29.76 in 10.0 mi SSW 13.8 mph 19.6 mph N/A   Scattered Clouds
5:55 AM 50.9 °F 50.9 °F 100% 29.77 in 10.0 mi SSW 17.3 mph - N/A   Scattered Clouds
6:15 AM 49.8 °F 49.8 °F 100% 29.77 in 10.0 mi South 12.7 mph 17.3 mph N/A   Scattered Clouds
7:15 AM 48.2 °F 48.4 °F 100% 29.75 in 10.0 mi SSW 13.8 mph 19.6 mph N/A   Clear
7:35 AM 48.2 °F 48.4 °F 100% 29.76 in 10.0 mi SSW 15.0 mph 19.6 mph N/A   Clear
7:55 AM 48.2 °F 48.4 °F 100% 29.75 in 10.0 mi South 12.7 mph - N/A   Clear
8:15 AM - - N/A% 29.76 in 10.0 mi South 16.1 mph 21.9 mph N/A   Clear
8:35 AM 50.9 °F 50.9 °F 100% 29.77 in 10.0 mi SSW 13.8 mph 24.2 mph N/A   Clear
8:55 AM 50.9 °F 50.4 °F 98% 29.75 in 10.0 mi South 17.3 mph - N/A   Clear
9:15 AM 50.9 °F 48.9 °F 93% 29.75 in 10.0 mi SSW 20.7 mph 25.3 mph N/A   Clear
9:35 AM 52.5 °F 48.6 °F 86% 29.76 in 10.0 mi SSW 20.7 mph 28.8 mph N/A   Clear
9:55 AM 53.6 °F 48.6 °F 83% 29.75 in 10.0 mi SSW 17.3 mph 27.6 mph N/A   Clear
10:15 AM 55.6 °F 48.7 °F 78% 29.75 in 10.0 mi SSW 23.0 mph 34.5 mph N/A   Clear
10:35 AM 57.0 °F 47.3 °F 70% 29.74 in 10.0 mi SSW 27.6 mph 34.5 mph N/A   Clear
10:55 AM 58.3 °F 46.6 °F 65% 29.74 in 10.0 mi SSW 26.5 mph 33.4 mph N/A   Clear
11:15 AM 58.3 °F 46.6 °F 65% 29.73 in 10.0 mi SW 21.9 mph 28.8 mph N/A   Clear
11:35 AM 58.3 °F 45.7 °F 63% 29.73 in 10.0 mi SW 25.3 mph 35.7 mph N/A   Clear
11:55 AM 58.5 °F 45.7 °F 62% 29.72 in 10.0 mi SW 21.9 mph 32.2 mph N/A   Clear
12:15 PM 59.5 °F 45.9 °F 61% 29.72 in 10.0 mi SSW 24.2 mph 31.1 mph N/A   Clear
12:35 PM 60.3 °F 46.6 °F 61% 29.70 in 10.0 mi SW 17.3 mph 31.1 mph N/A   Clear
12:55 PM 60.8 °F 46.9 °F 60% 29.70 in 10.0 mi SSW 20.7 mph 35.7 mph N/A   Clear
1:15 PM 60.8 °F 46.2 °F 59% 29.68 in 10.0 mi SSW 24.2 mph 32.2 mph N/A   Clear
1:35 PM 61.2 °F 45.3 °F 56% 29.67 in 10.0 mi SSW 17.3 mph 34.5 mph N/A   Clear
2:15 PM 61.3 °F 44.8 °F 55% 29.68 in 10.0 mi SSW 18.4 mph - N/A   Clear
2:35 PM 61.7 °F 45.0 °F 54% 29.67 in 10.0 mi SSW 15.0 mph 23.0 mph N/A   Clear
2:55 PM 62.8 °F 44.2 °F 51% 29.67 in 10.0 mi SSW 15.0 mph 21.9 mph N/A   Clear
3:15 PM 63.5 °F 43.7 °F 48% 29.67 in 10.0 mi SSW 19.6 mph 28.8 mph N/A   Clear
3:35 PM 63.0 °F 43.5 °F 49% 29.67 in 10.0 mi SSW 16.1 mph 23.0 mph N/A   Clear
3:55 PM 62.2 °F 43.5 °F 50% 29.67 in 10.0 mi South 12.7 mph 26.5 mph N/A   Clear
4:15 PM 63.0 °F 43.5 °F 49% 29.66 in 10.0 mi South 18.4 mph 28.8 mph N/A   Clear
4:35 PM 62.8 °F 43.5 °F 49% 29.66 in 10.0 mi South 15.0 mph 25.3 mph N/A   Clear
4:55 PM 62.1 °F 43.5 °F 51% 29.66 in 10.0 mi South 13.8 mph 20.7 mph N/A   Clear
5:15 PM 62.1 °F 43.7 °F 51% 29.66 in 10.0 mi SSW 12.7 mph 26.5 mph N/A   Clear
5:35 PM 61.3 °F 43.9 °F 53% 29.67 in 10.0 mi SSW 12.7 mph 21.9 mph N/A   Clear
5:55 PM 59.9 °F 44.6 °F 57% 29.68 in 10.0 mi SSW 10.4 mph - N/A   Clear
6:15 PM 60.6 °F 45.1 °F 57% 29.68 in 10.0 mi South 10.4 mph - N/A   Clear
6:35 PM 60.8 °F 45.1 °F 56% 29.68 in 10.0 mi SSW 11.5 mph - N/A   Clear
6:55 PM 60.8 °F 44.8 °F 56% 29.69 in 10.0 mi SSW 13.8 mph - N/A   Clear
7:15 PM 60.8 °F 43.7 °F 53% 29.69 in 10.0 mi SSW 15.0 mph 21.9 mph N/A   Clear
7:35 PM 60.8 °F 43.2 °F 52% 29.69 in 10.0 mi SSW 15.0 mph 19.6 mph N/A   Clear
7:55 PM 60.8 °F 43.3 °F 53% 29.70 in 10.0 mi SSW 13.8 mph 19.6 mph N/A   Clear
8:15 PM 60.8 °F 43.9 °F 54% 29.71 in 10.0 mi SSW 17.3 mph 24.2 mph N/A   Clear
8:35 PM 60.8 °F 43.7 °F 53% 29.71 in 10.0 mi SSW 18.4 mph 25.3 mph N/A   Clear
8:55 PM 60.8 °F 43.9 °F 54% 29.72 in 10.0 mi SSW 15.0 mph 23.0 mph N/A   Clear
9:15 PM 60.8 °F 43.3 °F 53% 29.72 in 10.0 mi SSW 17.3 mph 25.3 mph N/A   Clear
9:35 PM 60.8 °F 43.3 °F 53% 29.72 in 10.0 mi SSW 17.3 mph 24.2 mph N/A   Clear
9:55 PM 60.8 °F 43.7 °F 53% 29.72 in 10.0 mi SSW 19.6 mph 24.2 mph N/A   Clear
10:15 PM 60.8 °F 44.2 °F 54% 29.73 in 10.0 mi SSW 18.4 mph 25.3 mph N/A   Clear
10:35 PM 60.8 °F 44.8 °F 56% 29.74 in 10.0 mi SSW 19.6 mph 27.6 mph N/A   Clear
10:55 PM 60.8 °F 45.3 °F 57% 29.74 in 10.0 mi SSW 15.0 mph 23.0 mph N/A   Clear
11:15 PM 60.8 °F 45.5 °F 57% 29.75 in 10.0 mi SW 17.3 mph 24.2 mph N/A   Scattered Clouds
11:35 PM 60.8 °F 45.5 °F 57% 29.76 in 10.0 mi SW 15.0 mph 19.6 mph N/A   Scattered Clouds
11:55 PM 60.6 °F 46.0 °F 59% 29.78 in 10.0 mi SW 11.5 mph - N/A   Mostly Cloudy